SJX711 RCTP-VVTS
Flight info
| Callsign | SJX711 |
|---|---|
| Flight time | 3h 37m |
| Altitude | 40000 |
| Route | CHALI1A CHALI T3 MKG A1 KADLO T1 KAPLI DCT MADRU DCT SULUX DCT IGLEG DCT IKELA/K0906F400 A1 DAN Q1 DOVIN DOVIN5P |
| Aircraft | A359/H-SDE2E3GHIJ1J3J4J5LM1ORWXYZ/LB1D1 |
Departure
| Time | 2026-05-07 05:50 |
|---|---|
| Airport | Taiwan Taoyuan International Airport (RCTP) |
Arrival
| Time | 2026-05-07 09:27 |
|---|---|
| Airport | Tan Son Nhat International Airport (VVTS) |
| Time | Latitude | Longitude | Altitude | Speed | Heading |
|---|---|---|---|---|---|
| 2026-05-07 05:19 | 25.07647 | 121.23493 | 105 ft | 0 kts | 319° |
| 2026-05-07 05:37 | 25.07646 | 121.23493 | 105 ft | 0 kts | 319° |
| 2026-05-07 05:38 | 25.07636 | 121.23502 | 104 ft | 3 kts | 319° |
| 2026-05-07 05:38 | 25.07621 | 121.23517 | 104 ft | 3 kts | 319° |
| 2026-05-07 05:38 | 25.07606 | 121.23532 | 105 ft | 3 kts | 319° |
| 2026-05-07 05:38 | 25.07590 | 121.23546 | 104 ft | 3 kts | 319° |
| 2026-05-07 05:39 | 25.07575 | 121.23561 | 104 ft | 3 kts | 319° |
| 2026-05-07 05:39 | 25.07561 | 121.23572 | 104 ft | 3 kts | 357° |
| 2026-05-07 05:39 | 25.07549 | 121.23569 | 105 ft | 2 kts | 48° |
| 2026-05-07 05:39 | 25.07541 | 121.23559 | 105 ft | 3 kts | 49° |
| 2026-05-07 05:40 | 25.07528 | 121.23542 | 104 ft | 3 kts | 49° |
| 2026-05-07 05:40 | 25.07519 | 121.23530 | 103 ft | 1 kts | 49° |
| 2026-05-07 05:40 | 25.07518 | 121.23529 | 103 ft | 0 kts | 49° |
| 2026-05-07 05:43 | 25.07520 | 121.23531 | 103 ft | 1 kts | 49° |
| 2026-05-07 05:43 | 25.07533 | 121.23549 | 104 ft | 5 kts | 50° |
| 2026-05-07 05:43 | 25.07565 | 121.23592 | 106 ft | 7 kts | 51° |
| 2026-05-07 05:44 | 25.07594 | 121.23630 | 107 ft | 9 kts | 50° |
| 2026-05-07 05:44 | 25.07606 | 121.23682 | 107 ft | 7 kts | 118° |
| 2026-05-07 05:44 | 25.07558 | 121.23735 | 107 ft | 12 kts | 140° |
| 2026-05-07 05:44 | 25.07484 | 121.23788 | 106 ft | 12 kts | 176° |
| 2026-05-07 05:45 | 25.07417 | 121.23724 | 105 ft | 15 kts | 229° |
| 2026-05-07 05:45 | 25.07340 | 121.23626 | 106 ft | 19 kts | 229° |
| 2026-05-07 05:45 | 25.07247 | 121.23509 | 105 ft | 22 kts | 229° |
| 2026-05-07 05:45 | 25.07140 | 121.23374 | 104 ft | 25 kts | 229° |
| 2026-05-07 05:46 | 25.07025 | 121.23227 | 106 ft | 25 kts | 229° |
| 2026-05-07 05:46 | 25.06907 | 121.23077 | 106 ft | 26 kts | 229° |
| 2026-05-07 05:46 | 25.06794 | 121.22934 | 106 ft | 24 kts | 229° |
| 2026-05-07 05:46 | 25.06689 | 121.22801 | 107 ft | 22 kts | 229° |
| 2026-05-07 05:47 | 25.06592 | 121.22679 | 106 ft | 21 kts | 229° |
| 2026-05-07 05:47 | 25.06492 | 121.22552 | 106 ft | 21 kts | 229° |
| 2026-05-07 05:47 | 25.06406 | 121.22442 | 104 ft | 19 kts | 229° |
| 2026-05-07 05:47 | 25.06318 | 121.22331 | 106 ft | 17 kts | 229° |
| 2026-05-07 05:48 | 25.06265 | 121.22264 | 106 ft | 9 kts | 227° |
| 2026-05-07 05:48 | 25.06203 | 121.22256 | 106 ft | 11 kts | 154° |
| 2026-05-07 05:48 | 25.06126 | 121.22326 | 105 ft | 17 kts | 138° |
| 2026-05-07 05:48 | 25.06102 | 121.22373 | 104 ft | 9 kts | 88° |
| 2026-05-07 05:49 | 25.06123 | 121.22407 | 104 ft | 0 kts | 48° |
| 2026-05-07 05:49 | 25.06233 | 121.22545 | 106 ft | 66 kts | 49° |
| 2026-05-07 05:49 | 25.06721 | 121.23163 | 103 ft | 144 kts | 49° |
| 2026-05-07 05:50 | 25.07512 | 121.24165 | 354 ft | 189 kts | 49° |
| 2026-05-07 05:50 | 25.08088 | 121.24898 | 902 ft | 194 kts | 49° |
| 2026-05-07 05:50 | 25.09004 | 121.26072 | 1678 ft | 211 kts | 50° |
| 2026-05-07 05:50 | 25.09991 | 121.27375 | 2266 ft | 231 kts | 50° |
| 2026-05-07 05:51 | 25.11284 | 121.28487 | 3086 ft | 241 kts | 26° |
| 2026-05-07 05:51 | 25.12906 | 121.28901 | 3581 ft | 251 kts | 358° |
| 2026-05-07 05:51 | 25.14612 | 121.28375 | 3817 ft | 261 kts | 330° |
| 2026-05-07 05:51 | 25.15942 | 121.27029 | 3870 ft | 260 kts | 303° |
| 2026-05-07 05:52 | 25.16970 | 121.25364 | 4024 ft | 264 kts | 307° |
| 2026-05-07 05:52 | 25.18131 | 121.23803 | 4055 ft | 263 kts | 312° |
| 2026-05-07 05:52 | 25.19398 | 121.22346 | 4055 ft | 263 kts | 315° |
| 2026-05-07 05:52 | 25.20726 | 121.20957 | 4055 ft | 263 kts | 317° |
| 2026-05-07 05:53 | 25.22089 | 121.19601 | 4054 ft | 264 kts | 319° |
| 2026-05-07 05:53 | 25.23468 | 121.18268 | 4198 ft | 264 kts | 319° |
| 2026-05-07 05:53 | 25.24872 | 121.16931 | 4924 ft | 268 kts | 319° |
| 2026-05-07 05:53 | 25.26178 | 121.15506 | 6019 ft | 268 kts | 310° |
| 2026-05-07 05:54 | 25.27174 | 121.13765 | 7120 ft | 270 kts | 294° |
| 2026-05-07 05:54 | 25.27701 | 121.11764 | 8218 ft | 274 kts | 278° |
| 2026-05-07 05:54 | 25.27693 | 121.09651 | 9300 ft | 278 kts | 262° |
| 2026-05-07 05:54 | 25.27132 | 121.07593 | 10351 ft | 284 kts | 245° |
| 2026-05-07 05:55 | 25.26030 | 121.05745 | 11227 ft | 297 kts | 229° |
| 2026-05-07 05:55 | 25.24380 | 121.04216 | 11688 ft | 323 kts | 213° |
| 2026-05-07 05:55 | 25.22380 | 121.02897 | 12226 ft | 344 kts | 210° |
| 2026-05-07 05:55 | 25.20342 | 121.01446 | 13059 ft | 353 kts | 219° |
| 2026-05-07 05:56 | 25.18487 | 120.99637 | 13975 ft | 359 kts | 224° |
| 2026-05-07 05:56 | 25.16673 | 120.97714 | 14857 ft | 364 kts | 225° |
| 2026-05-07 05:56 | 25.14843 | 120.95752 | 15748 ft | 369 kts | 225° |
| 2026-05-07 05:56 | 25.12988 | 120.93765 | 16594 ft | 374 kts | 225° |
| 2026-05-07 05:57 | 25.11112 | 120.91753 | 17446 ft | 379 kts | 225° |
| 2026-05-07 05:57 | 25.09216 | 120.89699 | 18281 ft | 384 kts | 225° |
| 2026-05-07 05:57 | 25.07299 | 120.87625 | 19146 ft | 389 kts | 225° |
| 2026-05-07 05:57 | 25.05355 | 120.85524 | 19984 ft | 394 kts | 225° |
| 2026-05-07 05:58 | 25.03385 | 120.83399 | 20784 ft | 399 kts | 225° |
| 2026-05-07 05:58 | 25.01387 | 120.81247 | 21585 ft | 404 kts | 225° |
| 2026-05-07 05:58 | 24.99368 | 120.79074 | 22355 ft | 408 kts | 225° |
| 2026-05-07 05:58 | 24.97323 | 120.76874 | 23092 ft | 413 kts | 225° |
| 2026-05-07 05:59 | 24.95252 | 120.74647 | 23820 ft | 418 kts | 225° |
| 2026-05-07 05:59 | 24.93159 | 120.72397 | 24527 ft | 423 kts | 225° |
| 2026-05-07 05:59 | 24.91045 | 120.70126 | 25212 ft | 427 kts | 225° |
| 2026-05-07 05:59 | 24.88907 | 120.67830 | 25877 ft | 432 kts | 225° |
| 2026-05-07 06:00 | 24.86747 | 120.65513 | 26523 ft | 436 kts | 225° |
| 2026-05-07 06:00 | 24.84561 | 120.63169 | 27153 ft | 440 kts | 225° |
| 2026-05-07 06:00 | 24.82357 | 120.60807 | 27766 ft | 445 kts | 225° |
| 2026-05-07 06:00 | 24.80159 | 120.58454 | 28353 ft | 449 kts | 225° |
| 2026-05-07 06:01 | 24.77881 | 120.56015 | 28931 ft | 453 kts | 225° |
| 2026-05-07 06:01 | 24.75613 | 120.53589 | 29486 ft | 457 kts | 225° |
| 2026-05-07 06:01 | 24.73315 | 120.51219 | 29993 ft | 461 kts | 221° |
| 2026-05-07 06:01 | 24.70774 | 120.49048 | 30510 ft | 465 kts | 217° |
| 2026-05-07 06:02 | 24.68137 | 120.46968 | 31009 ft | 468 kts | 216° |
| 2026-05-07 06:02 | 24.65448 | 120.44927 | 31478 ft | 472 kts | 215° |
| 2026-05-07 06:02 | 24.62727 | 120.42894 | 31916 ft | 475 kts | 214° |
| 2026-05-07 06:02 | 24.59980 | 120.40847 | 32335 ft | 478 kts | 214° |
| 2026-05-07 06:03 | 24.57222 | 120.38787 | 32750 ft | 481 kts | 215° |
| 2026-05-07 06:03 | 24.54445 | 120.36702 | 33139 ft | 484 kts | 215° |
| 2026-05-07 06:03 | 24.51661 | 120.34606 | 33511 ft | 487 kts | 215° |
| 2026-05-07 06:03 | 24.48861 | 120.32493 | 33870 ft | 490 kts | 215° |
| 2026-05-07 06:04 | 24.46048 | 120.30369 | 34320 ft | 490 kts | 215° |
| 2026-05-07 06:04 | 24.43249 | 120.28249 | 34830 ft | 488 kts | 216° |
| 2026-05-07 06:04 | 24.40476 | 120.26106 | 35317 ft | 487 kts | 216° |
| 2026-05-07 06:04 | 24.37722 | 120.23955 | 35758 ft | 486 kts | 216° |
| 2026-05-07 06:05 | 24.34969 | 120.21799 | 36179 ft | 485 kts | 216° |
| 2026-05-07 06:05 | 24.32221 | 120.19651 | 36577 ft | 485 kts | 216° |
| 2026-05-07 06:05 | 24.29472 | 120.17508 | 36941 ft | 485 kts | 216° |
| 2026-05-07 06:05 | 24.26717 | 120.15367 | 37291 ft | 485 kts | 216° |
| 2026-05-07 06:06 | 24.23963 | 120.13231 | 37643 ft | 485 kts | 216° |
| 2026-05-07 06:06 | 24.21206 | 120.11097 | 37971 ft | 485 kts | 216° |
| 2026-05-07 06:06 | 24.18450 | 120.08965 | 38300 ft | 485 kts | 216° |
| 2026-05-07 06:06 | 24.15687 | 120.06830 | 38614 ft | 485 kts | 216° |
| 2026-05-07 06:07 | 24.12929 | 120.04702 | 38914 ft | 485 kts | 216° |
| 2026-05-07 06:07 | 24.10167 | 120.02571 | 39221 ft | 486 kts | 216° |
| 2026-05-07 06:07 | 24.07408 | 120.00440 | 39504 ft | 486 kts | 216° |
| 2026-05-07 06:07 | 24.04651 | 119.98311 | 39780 ft | 486 kts | 216° |
| 2026-05-07 06:08 | 24.01884 | 119.96176 | 39978 ft | 487 kts | 216° |
| 2026-05-07 06:08 | 23.96347 | 119.91916 | 40002 ft | 486 kts | 216° |
| 2026-05-07 06:09 | 23.90819 | 119.87659 | 40000 ft | 486 kts | 216° |
| 2026-05-07 06:09 | 23.85284 | 119.83400 | 40001 ft | 487 kts | 216° |
| 2026-05-07 06:10 | 23.79749 | 119.79147 | 39999 ft | 487 kts | 216° |
| 2026-05-07 06:10 | 23.74210 | 119.74897 | 39999 ft | 487 kts | 216° |
| 2026-05-07 06:11 | 23.68668 | 119.70651 | 39999 ft | 487 kts | 216° |
| 2026-05-07 06:11 | 23.63138 | 119.66399 | 40001 ft | 487 kts | 217° |
| 2026-05-07 06:12 | 23.58322 | 119.61264 | 39999 ft | 485 kts | 234° |
| 2026-05-07 06:12 | 23.54565 | 119.55216 | 39999 ft | 486 kts | 238° |
| 2026-05-07 06:13 | 23.50981 | 119.48975 | 40000 ft | 486 kts | 239° |
| 2026-05-07 06:13 | 23.47407 | 119.42722 | 39997 ft | 486 kts | 238° |
| 2026-05-07 06:14 | 23.43808 | 119.36494 | 39997 ft | 486 kts | 238° |
| 2026-05-07 06:14 | 23.40190 | 119.30272 | 40002 ft | 486 kts | 238° |
| 2026-05-07 06:15 | 23.36568 | 119.24059 | 39999 ft | 486 kts | 238° |
| 2026-05-07 06:15 | 23.32945 | 119.17848 | 40000 ft | 486 kts | 238° |
| 2026-05-07 06:16 | 23.29323 | 119.11644 | 40001 ft | 486 kts | 238° |
| 2026-05-07 06:16 | 23.25694 | 119.05437 | 40002 ft | 486 kts | 238° |
| 2026-05-07 06:17 | 23.22066 | 118.99240 | 40001 ft | 486 kts | 238° |
| 2026-05-07 06:17 | 23.18457 | 118.93083 | 40002 ft | 486 kts | 238° |
| 2026-05-07 06:18 | 23.14823 | 118.86889 | 40001 ft | 486 kts | 238° |
| 2026-05-07 06:18 | 23.11186 | 118.80695 | 40002 ft | 486 kts | 238° |
| 2026-05-07 06:19 | 23.07549 | 118.74511 | 39997 ft | 486 kts | 238° |
| 2026-05-07 06:19 | 23.03907 | 118.68327 | 40002 ft | 486 kts | 238° |
| 2026-05-07 06:20 | 23.00263 | 118.62146 | 39998 ft | 486 kts | 238° |
| 2026-05-07 06:20 | 22.96343 | 118.56179 | 39997 ft | 487 kts | 228° |
| 2026-05-07 06:21 | 22.91119 | 118.51552 | 40002 ft | 487 kts | 212° |
| 2026-05-07 06:21 | 22.85232 | 118.47920 | 40002 ft | 487 kts | 209° |
| 2026-05-07 06:22 | 22.79259 | 118.44455 | 40001 ft | 487 kts | 208° |
| 2026-05-07 06:22 | 22.70312 | 118.39244 | 40002 ft | 487 kts | 209° |
| 2026-05-07 06:23 | 22.64358 | 118.35751 | 40000 ft | 487 kts | 209° |
| 2026-05-07 06:23 | 22.58404 | 118.32252 | 40002 ft | 487 kts | 209° |
| 2026-05-07 06:24 | 22.52452 | 118.28755 | 40000 ft | 487 kts | 209° |
| 2026-05-07 06:24 | 22.46498 | 118.25262 | 40001 ft | 487 kts | 209° |
| 2026-05-07 06:25 | 22.40542 | 118.21776 | 40001 ft | 487 kts | 209° |
| 2026-05-07 06:25 | 22.34629 | 118.18321 | 40001 ft | 487 kts | 209° |
| 2026-05-07 06:26 | 22.28677 | 118.14826 | 40000 ft | 487 kts | 209° |
| 2026-05-07 06:26 | 22.22722 | 118.11340 | 40000 ft | 487 kts | 209° |
| 2026-05-07 06:27 | 22.16767 | 118.07862 | 40001 ft | 487 kts | 209° |
| 2026-05-07 06:27 | 22.10809 | 118.04387 | 40002 ft | 487 kts | 209° |
| 2026-05-07 06:28 | 22.04849 | 118.00916 | 40002 ft | 487 kts | 209° |
| 2026-05-07 06:28 | 21.98896 | 117.97453 | 39999 ft | 487 kts | 209° |
| 2026-05-07 06:29 | 21.92930 | 117.93986 | 40000 ft | 487 kts | 209° |
| 2026-05-07 06:29 | 21.86969 | 117.90524 | 39999 ft | 487 kts | 209° |
| 2026-05-07 06:30 | 21.81007 | 117.87066 | 39999 ft | 487 kts | 209° |
| 2026-05-07 06:30 | 21.75045 | 117.83610 | 40000 ft | 487 kts | 209° |
| 2026-05-07 06:31 | 21.69080 | 117.80156 | 40000 ft | 487 kts | 209° |
| 2026-05-07 06:31 | 21.63120 | 117.76708 | 40001 ft | 487 kts | 209° |
| 2026-05-07 06:32 | 21.57191 | 117.73283 | 40000 ft | 487 kts | 209° |
| 2026-05-07 06:32 | 21.51226 | 117.69838 | 40003 ft | 487 kts | 209° |
| 2026-05-07 06:33 | 21.45261 | 117.66397 | 40001 ft | 487 kts | 209° |
| 2026-05-07 06:33 | 21.39292 | 117.62958 | 39999 ft | 487 kts | 209° |
| 2026-05-07 06:34 | 21.33328 | 117.59523 | 40002 ft | 487 kts | 209° |
| 2026-05-07 06:34 | 21.27365 | 117.56071 | 39999 ft | 487 kts | 211° |
| 2026-05-07 06:35 | 21.22051 | 117.51634 | 40000 ft | 485 kts | 227° |
| 2026-05-07 06:35 | 21.18304 | 117.45673 | 39999 ft | 484 kts | 246° |
| 2026-05-07 06:36 | 21.16610 | 117.38732 | 39999 ft | 484 kts | 266° |
| 2026-05-07 06:36 | 21.16376 | 117.31519 | 40002 ft | 485 kts | 270° |
| 2026-05-07 06:37 | 21.16350 | 117.24280 | 40000 ft | 486 kts | 270° |
| 2026-05-07 06:37 | 21.15849 | 117.17080 | 39998 ft | 486 kts | 258° |
| 2026-05-07 06:38 | 21.14049 | 117.11392 | 40003 ft | 486 kts | 246° |
| 2026-05-07 06:38 | 21.10656 | 117.03753 | 40002 ft | 486 kts | 244° |
| 2026-05-07 06:39 | 21.08145 | 116.98377 | 40002 ft | 486 kts | 244° |
| 2026-05-07 06:39 | 21.05132 | 116.91895 | 39999 ft | 486 kts | 244° |
| 2026-05-07 06:40 | 21.02143 | 116.85408 | 40002 ft | 486 kts | 244° |
| 2026-05-07 06:40 | 20.98659 | 116.77822 | 40002 ft | 486 kts | 244° |
| 2026-05-07 06:41 | 20.96180 | 116.72431 | 39998 ft | 486 kts | 244° |
| 2026-05-07 06:41 | 20.93194 | 116.65947 | 40001 ft | 486 kts | 244° |
| 2026-05-07 06:42 | 20.90203 | 116.59460 | 39997 ft | 486 kts | 244° |
| 2026-05-07 06:42 | 20.87231 | 116.53025 | 40002 ft | 486 kts | 244° |
| 2026-05-07 06:43 | 20.84237 | 116.46549 | 39999 ft | 486 kts | 244° |
| 2026-05-07 06:43 | 20.81241 | 116.40076 | 40001 ft | 486 kts | 244° |
| 2026-05-07 06:44 | 20.78240 | 116.33601 | 40000 ft | 486 kts | 244° |
| 2026-05-07 06:44 | 20.75240 | 116.27135 | 40002 ft | 486 kts | 244° |
| 2026-05-07 06:45 | 20.72234 | 116.20666 | 39998 ft | 486 kts | 244° |
| 2026-05-07 06:45 | 20.69230 | 116.14205 | 40001 ft | 486 kts | 244° |
| 2026-05-07 06:46 | 20.66220 | 116.07742 | 40002 ft | 486 kts | 244° |
| 2026-05-07 06:46 | 20.63207 | 116.01281 | 39997 ft | 486 kts | 244° |
| 2026-05-07 06:47 | 20.60193 | 115.94823 | 40001 ft | 486 kts | 244° |
| 2026-05-07 06:47 | 20.57178 | 115.88371 | 39999 ft | 486 kts | 244° |
| 2026-05-07 06:48 | 20.54158 | 115.81917 | 40000 ft | 486 kts | 244° |
| 2026-05-07 06:48 | 20.51137 | 115.75470 | 39999 ft | 486 kts | 244° |
| 2026-05-07 06:49 | 20.48114 | 115.69023 | 39998 ft | 486 kts | 244° |
| 2026-05-07 06:49 | 20.45089 | 115.62579 | 40000 ft | 486 kts | 244° |
| 2026-05-07 06:50 | 20.42061 | 115.56138 | 40001 ft | 486 kts | 244° |
| 2026-05-07 06:50 | 20.39031 | 115.49700 | 40002 ft | 486 kts | 244° |
| 2026-05-07 06:51 | 20.35997 | 115.43263 | 39998 ft | 486 kts | 244° |
| 2026-05-07 06:51 | 20.32960 | 115.36829 | 40000 ft | 486 kts | 244° |
| 2026-05-07 06:52 | 20.29927 | 115.30405 | 40002 ft | 486 kts | 244° |
| 2026-05-07 06:52 | 20.26884 | 115.23968 | 40001 ft | 486 kts | 244° |
| 2026-05-07 06:53 | 20.23841 | 115.17539 | 40002 ft | 486 kts | 244° |
| 2026-05-07 06:53 | 20.20797 | 115.11116 | 39998 ft | 486 kts | 244° |
| 2026-05-07 06:54 | 20.17770 | 115.04738 | 40001 ft | 486 kts | 244° |
| 2026-05-07 06:54 | 20.14722 | 114.98322 | 40001 ft | 486 kts | 244° |
| 2026-05-07 06:55 | 20.11671 | 114.91907 | 40001 ft | 486 kts | 244° |
| 2026-05-07 06:55 | 20.08616 | 114.85495 | 40001 ft | 486 kts | 244° |
| 2026-05-07 06:56 | 20.05559 | 114.79081 | 40000 ft | 486 kts | 244° |
| 2026-05-07 06:56 | 20.02500 | 114.72673 | 40001 ft | 486 kts | 243° |
| 2026-05-07 06:57 | 19.99439 | 114.66267 | 40002 ft | 486 kts | 243° |
| 2026-05-07 06:57 | 19.96375 | 114.59861 | 40002 ft | 486 kts | 243° |
| 2026-05-07 06:58 | 19.93313 | 114.53467 | 40001 ft | 486 kts | 243° |
| 2026-05-07 06:58 | 19.90242 | 114.47063 | 39998 ft | 486 kts | 243° |
| 2026-05-07 06:59 | 19.87172 | 114.40667 | 40000 ft | 486 kts | 243° |
| 2026-05-07 06:59 | 19.84099 | 114.34273 | 40002 ft | 486 kts | 243° |
| 2026-05-07 07:00 | 19.81024 | 114.27880 | 39999 ft | 486 kts | 243° |
| 2026-05-07 07:00 | 19.77967 | 114.21533 | 39998 ft | 486 kts | 243° |
| 2026-05-07 07:01 | 19.74888 | 114.15147 | 39999 ft | 486 kts | 243° |
| 2026-05-07 07:01 | 19.71807 | 114.08764 | 39997 ft | 486 kts | 243° |
| 2026-05-07 07:02 | 19.68722 | 114.02381 | 40002 ft | 486 kts | 243° |
| 2026-05-07 07:02 | 19.65637 | 113.96004 | 39998 ft | 486 kts | 243° |
| 2026-05-07 07:03 | 19.62549 | 113.89628 | 40002 ft | 486 kts | 243° |
| 2026-05-07 07:03 | 19.59457 | 113.83252 | 40002 ft | 486 kts | 243° |
| 2026-05-07 07:04 | 19.56364 | 113.76880 | 40002 ft | 486 kts | 243° |
| 2026-05-07 07:04 | 19.53270 | 113.70512 | 40001 ft | 486 kts | 243° |
| 2026-05-07 07:05 | 19.50172 | 113.64145 | 40000 ft | 486 kts | 243° |
| 2026-05-07 07:05 | 19.47073 | 113.57780 | 40000 ft | 486 kts | 243° |
| 2026-05-07 07:06 | 19.43970 | 113.51418 | 40001 ft | 486 kts | 243° |
| 2026-05-07 07:06 | 19.40867 | 113.45059 | 39999 ft | 486 kts | 243° |
| 2026-05-07 07:07 | 19.37762 | 113.38703 | 39998 ft | 486 kts | 243° |
| 2026-05-07 07:07 | 19.34652 | 113.32343 | 40002 ft | 486 kts | 243° |
| 2026-05-07 07:08 | 19.31542 | 113.25992 | 40000 ft | 486 kts | 243° |
| 2026-05-07 07:08 | 19.28429 | 113.19641 | 40001 ft | 486 kts | 243° |
| 2026-05-07 07:09 | 19.25315 | 113.13294 | 40000 ft | 486 kts | 243° |
| 2026-05-07 07:09 | 19.22198 | 113.06949 | 39999 ft | 486 kts | 243° |
| 2026-05-07 07:10 | 19.19080 | 113.00609 | 40002 ft | 486 kts | 243° |
| 2026-05-07 07:10 | 19.15959 | 112.94270 | 40000 ft | 486 kts | 243° |
| 2026-05-07 07:11 | 19.12833 | 112.87927 | 40002 ft | 486 kts | 243° |
| 2026-05-07 07:11 | 19.09709 | 112.81594 | 40002 ft | 486 kts | 243° |
| 2026-05-07 07:12 | 19.06581 | 112.75260 | 40001 ft | 486 kts | 243° |
| 2026-05-07 07:12 | 19.03450 | 112.68929 | 39999 ft | 486 kts | 243° |
| 2026-05-07 07:13 | 19.00319 | 112.62602 | 40000 ft | 486 kts | 243° |
| 2026-05-07 07:13 | 18.97186 | 112.56278 | 40000 ft | 486 kts | 243° |
| 2026-05-07 07:14 | 18.94068 | 112.49994 | 40001 ft | 486 kts | 243° |
| 2026-05-07 07:14 | 18.90540 | 112.43916 | 40000 ft | 486 kts | 231° |
| 2026-05-07 07:15 | 18.85612 | 112.39055 | 40001 ft | 487 kts | 218° |
| 2026-05-07 07:15 | 18.80140 | 112.34842 | 39999 ft | 487 kts | 216° |
| 2026-05-07 07:16 | 18.74599 | 112.30737 | 40000 ft | 487 kts | 216° |
| 2026-05-07 07:16 | 18.69088 | 112.26597 | 39997 ft | 486 kts | 218° |
| 2026-05-07 07:17 | 18.64394 | 112.21504 | 40001 ft | 485 kts | 234° |
| 2026-05-07 07:17 | 18.60537 | 112.15665 | 40001 ft | 486 kts | 237° |
| 2026-05-07 07:18 | 18.56821 | 112.09717 | 40002 ft | 486 kts | 237° |
| 2026-05-07 07:18 | 18.53102 | 112.03765 | 40000 ft | 486 kts | 237° |
| 2026-05-07 07:19 | 18.49361 | 111.97834 | 40000 ft | 486 kts | 237° |
| 2026-05-07 07:19 | 18.45607 | 111.91911 | 39998 ft | 486 kts | 237° |
| 2026-05-07 07:20 | 18.41854 | 111.86000 | 39999 ft | 486 kts | 237° |
| 2026-05-07 07:20 | 18.37479 | 111.80587 | 40000 ft | 487 kts | 222° |
| 2026-05-07 07:21 | 18.31871 | 111.76703 | 39999 ft | 487 kts | 208° |
| 2026-05-07 07:21 | 18.25870 | 111.73402 | 40003 ft | 487 kts | 208° |
| 2026-05-07 07:22 | 18.19866 | 111.70112 | 40002 ft | 487 kts | 208° |
| 2026-05-07 07:22 | 18.13859 | 111.66814 | 40000 ft | 487 kts | 208° |
| 2026-05-07 07:23 | 18.07856 | 111.63518 | 40000 ft | 487 kts | 208° |
| 2026-05-07 07:23 | 18.01854 | 111.60224 | 40000 ft | 487 kts | 208° |
| 2026-05-07 07:24 | 17.95851 | 111.56933 | 40003 ft | 487 kts | 208° |
| 2026-05-07 07:24 | 17.89845 | 111.53642 | 40001 ft | 487 kts | 208° |
| 2026-05-07 07:25 | 17.80834 | 111.48711 | 39998 ft | 487 kts | 208° |
| 2026-05-07 07:26 | 17.74831 | 111.45428 | 39999 ft | 487 kts | 208° |
| 2026-05-07 07:26 | 17.68824 | 111.42145 | 40000 ft | 487 kts | 208° |
| 2026-05-07 07:27 | 17.62817 | 111.38865 | 40001 ft | 487 kts | 208° |
| 2026-05-07 07:27 | 17.57828 | 111.36142 | 39998 ft | 487 kts | 208° |
| 2026-05-07 07:28 | 17.51815 | 111.32863 | 39999 ft | 487 kts | 208° |
| 2026-05-07 07:28 | 17.45806 | 111.29589 | 39998 ft | 487 kts | 208° |
| 2026-05-07 07:29 | 17.39798 | 111.26317 | 40000 ft | 487 kts | 208° |
| 2026-05-07 07:29 | 17.33787 | 111.23046 | 39999 ft | 487 kts | 208° |
| 2026-05-07 07:30 | 17.27780 | 111.19781 | 40001 ft | 487 kts | 208° |
| 2026-05-07 07:30 | 17.21766 | 111.16514 | 39999 ft | 487 kts | 208° |
| 2026-05-07 07:31 | 17.15757 | 111.13252 | 40000 ft | 487 kts | 208° |
| 2026-05-07 07:31 | 17.09744 | 111.09990 | 39999 ft | 487 kts | 208° |
| 2026-05-07 07:32 | 17.03735 | 111.06732 | 39999 ft | 487 kts | 208° |
| 2026-05-07 07:32 | 16.97720 | 111.03474 | 40000 ft | 487 kts | 208° |
| 2026-05-07 07:33 | 16.91705 | 111.00219 | 40001 ft | 487 kts | 208° |
| 2026-05-07 07:33 | 16.85694 | 110.96968 | 40001 ft | 487 kts | 208° |
| 2026-05-07 07:34 | 16.79676 | 110.93715 | 39998 ft | 487 kts | 208° |
| 2026-05-07 07:34 | 16.73665 | 110.90469 | 40000 ft | 487 kts | 208° |
| 2026-05-07 07:35 | 16.67648 | 110.87221 | 39996 ft | 487 kts | 208° |
| 2026-05-07 07:35 | 16.61633 | 110.83977 | 39999 ft | 487 kts | 208° |
| 2026-05-07 07:36 | 16.55616 | 110.80734 | 40000 ft | 487 kts | 208° |
| 2026-05-07 07:36 | 16.49597 | 110.77493 | 40000 ft | 487 kts | 208° |
| 2026-05-07 07:37 | 16.43579 | 110.74254 | 40002 ft | 487 kts | 208° |
| 2026-05-07 07:37 | 16.37604 | 110.71040 | 40000 ft | 487 kts | 208° |
| 2026-05-07 07:38 | 16.31585 | 110.67806 | 40003 ft | 487 kts | 208° |
| 2026-05-07 07:38 | 16.25568 | 110.64574 | 40003 ft | 487 kts | 208° |
| 2026-05-07 07:39 | 16.19546 | 110.61342 | 40001 ft | 487 kts | 208° |
| 2026-05-07 07:39 | 16.13526 | 110.58114 | 40001 ft | 487 kts | 208° |
| 2026-05-07 07:40 | 16.07506 | 110.54887 | 39999 ft | 487 kts | 208° |
| 2026-05-07 07:40 | 16.01485 | 110.51663 | 40001 ft | 487 kts | 208° |
| 2026-05-07 07:41 | 15.95464 | 110.48440 | 39999 ft | 487 kts | 208° |
| 2026-05-07 07:41 | 15.89441 | 110.45219 | 39999 ft | 487 kts | 208° |
| 2026-05-07 07:42 | 15.83419 | 110.42000 | 40002 ft | 487 kts | 208° |
| 2026-05-07 07:42 | 15.77397 | 110.38783 | 39999 ft | 487 kts | 208° |
| 2026-05-07 07:43 | 15.71370 | 110.35566 | 40000 ft | 487 kts | 208° |
| 2026-05-07 07:43 | 15.65348 | 110.32354 | 40001 ft | 487 kts | 208° |
| 2026-05-07 07:44 | 15.59323 | 110.29142 | 40002 ft | 487 kts | 208° |
| 2026-05-07 07:44 | 15.53301 | 110.25934 | 40001 ft | 487 kts | 208° |
| 2026-05-07 07:45 | 15.47274 | 110.22726 | 40000 ft | 487 kts | 208° |
| 2026-05-07 07:45 | 15.41251 | 110.19522 | 40000 ft | 487 kts | 208° |
| 2026-05-07 07:46 | 15.35222 | 110.16317 | 40001 ft | 487 kts | 208° |
| 2026-05-07 07:46 | 15.29194 | 110.13114 | 40001 ft | 487 kts | 208° |
| 2026-05-07 07:47 | 15.23171 | 110.09915 | 39999 ft | 487 kts | 208° |
| 2026-05-07 07:47 | 15.17142 | 110.06717 | 40001 ft | 487 kts | 208° |
| 2026-05-07 07:48 | 15.11115 | 110.03521 | 40003 ft | 487 kts | 207° |
| 2026-05-07 07:48 | 15.05127 | 110.00348 | 39998 ft | 487 kts | 207° |
| 2026-05-07 07:49 | 14.99097 | 109.97154 | 39999 ft | 487 kts | 207° |
| 2026-05-07 07:49 | 14.93070 | 109.93965 | 40000 ft | 487 kts | 207° |
| 2026-05-07 07:50 | 14.87037 | 109.90773 | 39998 ft | 487 kts | 207° |
| 2026-05-07 07:50 | 14.81007 | 109.87586 | 40000 ft | 487 kts | 207° |
| 2026-05-07 07:51 | 14.74980 | 109.84402 | 40000 ft | 487 kts | 207° |
| 2026-05-07 07:51 | 14.68946 | 109.81217 | 40001 ft | 487 kts | 207° |
| 2026-05-07 07:52 | 14.62915 | 109.78034 | 39998 ft | 487 kts | 207° |
| 2026-05-07 07:52 | 14.56885 | 109.74855 | 39999 ft | 487 kts | 207° |
| 2026-05-07 07:53 | 14.50853 | 109.71676 | 40000 ft | 487 kts | 207° |
| 2026-05-07 07:53 | 14.44816 | 109.68498 | 40001 ft | 487 kts | 207° |
| 2026-05-07 07:54 | 14.38786 | 109.65323 | 40000 ft | 487 kts | 207° |
| 2026-05-07 07:54 | 14.32753 | 109.62151 | 39999 ft | 487 kts | 207° |
| 2026-05-07 07:55 | 14.26717 | 109.58978 | 39998 ft | 487 kts | 207° |
| 2026-05-07 07:55 | 14.20723 | 109.55829 | 39998 ft | 487 kts | 207° |
| 2026-05-07 07:56 | 14.14687 | 109.52660 | 40001 ft | 487 kts | 207° |
| 2026-05-07 07:56 | 14.08655 | 109.49495 | 39999 ft | 487 kts | 207° |
| 2026-05-07 07:57 | 14.02617 | 109.46328 | 39996 ft | 487 kts | 207° |
| 2026-05-07 07:57 | 13.96584 | 109.43166 | 40001 ft | 487 kts | 207° |
| 2026-05-07 07:58 | 13.90545 | 109.40003 | 40001 ft | 487 kts | 207° |
| 2026-05-07 07:58 | 13.84509 | 109.36844 | 39998 ft | 487 kts | 207° |
| 2026-05-07 07:59 | 13.78471 | 109.33685 | 40002 ft | 487 kts | 207° |
| 2026-05-07 07:59 | 13.72433 | 109.30528 | 40001 ft | 487 kts | 207° |
| 2026-05-07 08:00 | 13.66397 | 109.27373 | 40001 ft | 487 kts | 207° |
| 2026-05-07 08:00 | 13.60356 | 109.24218 | 40001 ft | 487 kts | 207° |
| 2026-05-07 08:01 | 13.54318 | 109.21067 | 40000 ft | 487 kts | 207° |
| 2026-05-07 08:01 | 13.48269 | 109.17913 | 39999 ft | 488 kts | 207° |
| 2026-05-07 08:02 | 13.42217 | 109.14757 | 40001 ft | 489 kts | 207° |
| 2026-05-07 08:02 | 13.36150 | 109.11596 | 40000 ft | 488 kts | 207° |
| 2026-05-07 08:03 | 13.30091 | 109.08442 | 39999 ft | 488 kts | 207° |
| 2026-05-07 08:03 | 13.24043 | 109.05293 | 39998 ft | 487 kts | 207° |
| 2026-05-07 08:04 | 13.17986 | 109.02143 | 39999 ft | 489 kts | 207° |
| 2026-05-07 08:04 | 13.11916 | 108.98987 | 40000 ft | 489 kts | 207° |
| 2026-05-07 08:05 | 13.05856 | 108.95838 | 40001 ft | 488 kts | 207° |
| 2026-05-07 08:05 | 12.99803 | 108.92695 | 40001 ft | 487 kts | 207° |
| 2026-05-07 08:06 | 12.93753 | 108.89555 | 40000 ft | 488 kts | 207° |
| 2026-05-07 08:06 | 12.87694 | 108.86412 | 39998 ft | 488 kts | 207° |
| 2026-05-07 08:07 | 12.81618 | 108.83262 | 39998 ft | 491 kts | 207° |
| 2026-05-07 08:07 | 12.75522 | 108.80103 | 39999 ft | 491 kts | 207° |
| 2026-05-07 08:08 | 12.69433 | 108.76949 | 39999 ft | 490 kts | 207° |
| 2026-05-07 08:08 | 12.63342 | 108.73796 | 40002 ft | 491 kts | 207° |
| 2026-05-07 08:09 | 12.57284 | 108.70662 | 40002 ft | 491 kts | 207° |
| 2026-05-07 08:09 | 12.51182 | 108.67507 | 40001 ft | 492 kts | 207° |
| 2026-05-07 08:10 | 12.45075 | 108.64352 | 40002 ft | 493 kts | 207° |
| 2026-05-07 08:10 | 12.38933 | 108.61179 | 39998 ft | 496 kts | 207° |
| 2026-05-07 08:11 | 12.32779 | 108.58003 | 40000 ft | 494 kts | 207° |
| 2026-05-07 08:11 | 12.26645 | 108.54839 | 40001 ft | 494 kts | 207° |
| 2026-05-07 08:12 | 12.20503 | 108.51671 | 40002 ft | 494 kts | 207° |
| 2026-05-07 08:12 | 12.14357 | 108.48503 | 40000 ft | 495 kts | 207° |
| 2026-05-07 08:13 | 12.08187 | 108.45325 | 40002 ft | 498 kts | 207° |
| 2026-05-07 08:13 | 12.01992 | 108.42135 | 40003 ft | 499 kts | 207° |
| 2026-05-07 08:14 | 11.96841 | 108.39485 | 40000 ft | 498 kts | 207° |
| 2026-05-07 08:14 | 11.89615 | 108.35768 | 40002 ft | 497 kts | 207° |
| 2026-05-07 08:15 | 11.84490 | 108.33133 | 40000 ft | 495 kts | 207° |
| 2026-05-07 08:15 | 11.78166 | 108.30408 | 39998 ft | 495 kts | 194° |
| 2026-05-07 08:15 | 11.74764 | 108.29944 | 40002 ft | 494 kts | 181° |
| 2026-05-07 08:16 | 11.71344 | 108.30237 | 39997 ft | 494 kts | 169° |
| 2026-05-07 08:16 | 11.68068 | 108.31285 | 39998 ft | 494 kts | 155° |
| 2026-05-07 08:16 | 11.65152 | 108.33130 | 39999 ft | 495 kts | 141° |
| 2026-05-07 08:17 | 11.59945 | 108.37716 | 40001 ft | 495 kts | 142° |
| 2026-05-07 08:17 | 11.54314 | 108.41745 | 39998 ft | 495 kts | 153° |
| 2026-05-07 08:18 | 11.48009 | 108.44543 | 40000 ft | 494 kts | 159° |
| 2026-05-07 08:18 | 11.43778 | 108.46270 | 39998 ft | 492 kts | 159° |
| 2026-05-07 09:01 | 11.38622 | 108.48361 | 39997 ft | 490 kts | 159° |
| 2026-05-07 09:02 | 11.32204 | 108.50742 | 40001 ft | 491 kts | 166° |
| 2026-05-07 09:02 | 11.26591 | 108.51841 | 40000 ft | 489 kts | 171° |
| 2026-05-07 09:03 | 11.19888 | 108.52989 | 39999 ft | 488 kts | 171° |
| 2026-05-07 09:03 | 11.13187 | 108.54144 | 39999 ft | 488 kts | 171° |
| 2026-05-07 09:04 | 11.06444 | 108.54776 | 40000 ft | 487 kts | 181° |
| 2026-05-07 09:04 | 10.99777 | 108.54571 | 39720 ft | 472 kts | 182° |
| 2026-05-07 09:05 | 10.96526 | 108.54458 | 39486 ft | 462 kts | 182° |
| 2026-05-07 09:05 | 10.93350 | 108.54323 | 39240 ft | 452 kts | 185° |
| 2026-05-07 09:05 | 10.90302 | 108.53775 | 39071 ft | 440 kts | 197° |
| 2026-05-07 09:05 | 10.87523 | 108.52585 | 38862 ft | 429 kts | 211° |
| 2026-05-07 09:06 | 10.85142 | 108.50820 | 38634 ft | 419 kts | 224° |
| 2026-05-07 09:06 | 10.83259 | 108.48620 | 38441 ft | 408 kts | 236° |
| 2026-05-07 09:06 | 10.81922 | 108.46119 | 38220 ft | 398 kts | 249° |
| 2026-05-07 09:06 | 10.81145 | 108.43462 | 37911 ft | 386 kts | 260° |
| 2026-05-07 09:07 | 10.80913 | 108.40741 | 37083 ft | 392 kts | 272° |
| 2026-05-07 09:07 | 10.81271 | 108.37965 | 36209 ft | 401 kts | 284° |
| 2026-05-07 09:07 | 10.82218 | 108.35270 | 35342 ft | 409 kts | 296° |
| 2026-05-07 09:07 | 10.83718 | 108.32782 | 34451 ft | 417 kts | 306° |
| 2026-05-07 09:08 | 10.85488 | 108.30409 | 33545 ft | 425 kts | 308° |
| 2026-05-07 09:08 | 10.87323 | 108.28011 | 32590 ft | 433 kts | 308° |
| 2026-05-07 09:08 | 10.89128 | 108.25526 | 31589 ft | 441 kts | 303° |
| 2026-05-07 09:08 | 10.90696 | 108.22799 | 31195 ft | 455 kts | 297° |
| 2026-05-07 09:09 | 10.91935 | 108.19778 | 31186 ft | 470 kts | 288° |
| 2026-05-07 09:09 | 10.92654 | 108.16537 | 31081 ft | 466 kts | 277° |
| 2026-05-07 09:09 | 10.92828 | 108.13317 | 30316 ft | 449 kts | 271° |
| 2026-05-07 09:09 | 10.92811 | 108.10156 | 28895 ft | 448 kts | 269° |
| 2026-05-07 09:10 | 10.92759 | 108.06976 | 27449 ft | 449 kts | 269° |
| 2026-05-07 09:10 | 10.92708 | 108.03814 | 26564 ft | 446 kts | 269° |
| 2026-05-07 09:10 | 10.92662 | 108.00708 | 25824 ft | 435 kts | 269° |
| 2026-05-07 09:10 | 10.92620 | 107.97642 | 25088 ft | 433 kts | 269° |
| 2026-05-07 09:11 | 10.92580 | 107.94594 | 24365 ft | 430 kts | 269° |
| 2026-05-07 09:11 | 10.92541 | 107.91592 | 23767 ft | 428 kts | 269° |
| 2026-05-07 09:11 | 10.92502 | 107.88585 | 23014 ft | 420 kts | 269° |
| 2026-05-07 09:11 | 10.92464 | 107.85654 | 22214 ft | 412 kts | 269° |
| 2026-05-07 09:12 | 10.92425 | 107.82745 | 21502 ft | 410 kts | 269° |
| 2026-05-07 09:12 | 10.92387 | 107.79851 | 20780 ft | 407 kts | 269° |
| 2026-05-07 09:12 | 10.92350 | 107.76995 | 20075 ft | 402 kts | 269° |
| 2026-05-07 09:12 | 10.92312 | 107.74166 | 19360 ft | 398 kts | 269° |
| 2026-05-07 09:13 | 10.92274 | 107.71367 | 18642 ft | 393 kts | 269° |
| 2026-05-07 09:13 | 10.92237 | 107.68600 | 17918 ft | 389 kts | 269° |
| 2026-05-07 09:13 | 10.92200 | 107.65861 | 17206 ft | 385 kts | 269° |
| 2026-05-07 09:13 | 10.92163 | 107.63152 | 16485 ft | 381 kts | 269° |
| 2026-05-07 09:14 | 10.92126 | 107.60473 | 15766 ft | 377 kts | 269° |
| 2026-05-07 09:14 | 10.92089 | 107.57823 | 15059 ft | 373 kts | 269° |
| 2026-05-07 09:14 | 10.92052 | 107.55199 | 14332 ft | 368 kts | 269° |
| 2026-05-07 09:14 | 10.92016 | 107.52610 | 13620 ft | 365 kts | 269° |
| 2026-05-07 09:15 | 10.91957 | 107.50041 | 12913 ft | 361 kts | 266° |
| 2026-05-07 09:15 | 10.91372 | 107.47574 | 12233 ft | 360 kts | 246° |
| 2026-05-07 09:15 | 10.90138 | 107.45378 | 11571 ft | 356 kts | 239° |
| 2026-05-07 09:15 | 10.88863 | 107.43237 | 10894 ft | 352 kts | 239° |
| 2026-05-07 09:16 | 10.87607 | 107.41116 | 10217 ft | 349 kts | 239° |
| 2026-05-07 09:16 | 10.86363 | 107.39016 | 9548 ft | 345 kts | 239° |
| 2026-05-07 09:16 | 10.85131 | 107.36935 | 8865 ft | 342 kts | 239° |
| 2026-05-07 09:16 | 10.83910 | 107.34873 | 8181 ft | 338 kts | 239° |
| 2026-05-07 09:17 | 10.82703 | 107.32834 | 7500 ft | 335 kts | 239° |
| 2026-05-07 09:17 | 10.81507 | 107.30814 | 6841 ft | 332 kts | 239° |
| 2026-05-07 09:17 | 10.80322 | 107.28810 | 6175 ft | 329 kts | 239° |
| 2026-05-07 09:17 | 10.79175 | 107.26813 | 5568 ft | 326 kts | 243° |
| 2026-05-07 09:18 | 10.78388 | 107.24677 | 5293 ft | 315 kts | 257° |
| 2026-05-07 09:18 | 10.78235 | 107.22587 | 5239 ft | 282 kts | 276° |
| 2026-05-07 09:18 | 10.78680 | 107.20699 | 5242 ft | 270 kts | 289° |
| 2026-05-07 09:18 | 10.79333 | 107.18912 | 5244 ft | 269 kts | 291° |
| 2026-05-07 09:19 | 10.80028 | 107.17147 | 5248 ft | 269 kts | 292° |
| 2026-05-07 09:19 | 10.80735 | 107.15387 | 5246 ft | 269 kts | 292° |
| 2026-05-07 09:19 | 10.81448 | 107.13628 | 5249 ft | 269 kts | 292° |
| 2026-05-07 09:19 | 10.82161 | 107.11873 | 5246 ft | 269 kts | 292° |
| 2026-05-07 09:20 | 10.82876 | 107.10117 | 5246 ft | 269 kts | 292° |
| 2026-05-07 09:20 | 10.83591 | 107.08363 | 5248 ft | 269 kts | 292° |
| 2026-05-07 09:20 | 10.84300 | 107.06624 | 5246 ft | 268 kts | 292° |
| 2026-05-07 09:20 | 10.85021 | 107.04857 | 4995 ft | 275 kts | 293° |
| 2026-05-07 09:21 | 10.85763 | 107.03039 | 5000 ft | 280 kts | 293° |
| 2026-05-07 09:21 | 10.86510 | 107.01206 | 4996 ft | 281 kts | 293° |
| 2026-05-07 09:21 | 10.87258 | 106.99371 | 4995 ft | 280 kts | 293° |
| 2026-05-07 09:21 | 10.88005 | 106.97538 | 4995 ft | 280 kts | 293° |
| 2026-05-07 09:22 | 10.88750 | 106.95708 | 4993 ft | 280 kts | 293° |
| 2026-05-07 09:22 | 10.89498 | 106.93873 | 4994 ft | 281 kts | 293° |
| 2026-05-07 09:22 | 10.90247 | 106.92034 | 4993 ft | 281 kts | 293° |
| 2026-05-07 09:22 | 10.90805 | 106.90136 | 4842 ft | 281 kts | 276° |
| 2026-05-07 09:23 | 10.90711 | 106.88162 | 4534 ft | 279 kts | 258° |
| 2026-05-07 09:23 | 10.90096 | 106.86305 | 4175 ft | 276 kts | 247° |
| 2026-05-07 09:23 | 10.89330 | 106.84515 | 3964 ft | 275 kts | 247° |
| 2026-05-07 09:23 | 10.88622 | 106.82706 | 3958 ft | 276 kts | 250° |
| 2026-05-07 09:24 | 10.87952 | 106.80888 | 3690 ft | 270 kts | 250° |
| 2026-05-07 09:24 | 10.87310 | 106.79150 | 3184 ft | 255 kts | 249° |
| 2026-05-07 09:24 | 10.86709 | 106.77542 | 2480 ft | 239 kts | 249° |
| 2026-05-07 09:24 | 10.86128 | 106.76010 | 1881 ft | 224 kts | 249° |
| 2026-05-07 09:25 | 10.85595 | 106.74612 | 1596 ft | 199 kts | 249° |
| 2026-05-07 09:25 | 10.85140 | 106.73399 | 1423 ft | 171 kts | 248° |
| 2026-05-07 09:25 | 10.84739 | 106.72327 | 1214 ft | 155 kts | 247° |
| 2026-05-07 09:25 | 10.84369 | 106.71341 | 1019 ft | 144 kts | 244° |
| 2026-05-07 09:26 | 10.84026 | 106.70410 | 850 ft | 139 kts | 250° |
| 2026-05-07 09:26 | 10.83719 | 106.69487 | 728 ft | 135 kts | 253° |
| 2026-05-07 09:26 | 10.83385 | 106.68614 | 574 ft | 130 kts | 250° |
| 2026-05-07 09:26 | 10.83054 | 106.67780 | 357 ft | 124 kts | 248° |
| 2026-05-07 09:27 | 10.82735 | 106.66956 | 236 ft | 127 kts | 250° |
| 2026-05-07 09:27 | 10.82412 | 106.66117 | 57 ft | 126 kts | 249° |
| 2026-05-07 09:27 | 10.81994 | 106.65020 | 40 ft | 45 kts | 249° |
| 2026-05-07 09:28 | 10.81889 | 106.64750 | 42 ft | 37 kts | 240° |
| 2026-05-07 09:28 | 10.81724 | 106.64576 | 46 ft | 28 kts | 219° |
| 2026-05-07 09:28 | 10.81599 | 106.64443 | 43 ft | 26 kts | 245° |
| 2026-05-07 09:28 | 10.81552 | 106.64322 | 42 ft | 14 kts | 237° |
| 2026-05-07 09:29 | 10.81486 | 106.64313 | 43 ft | 11 kts | 157° |
| 2026-05-07 09:29 | 10.81408 | 106.64343 | 44 ft | 14 kts | 160° |
| 2026-05-07 09:29 | 10.81306 | 106.64381 | 43 ft | 16 kts | 159° |
| 2026-05-07 09:29 | 10.81238 | 106.64426 | 43 ft | 8 kts | 116° |
| 2026-05-07 09:30 | 10.81225 | 106.64483 | 44 ft | 9 kts | 101° |
| 2026-05-07 09:30 | 10.81213 | 106.64556 | 44 ft | 11 kts | 100° |
| 2026-05-07 09:30 | 10.81207 | 106.64639 | 45 ft | 14 kts | 79° |
| 2026-05-07 09:30 | 10.81243 | 106.64740 | 44 ft | 15 kts | 69° |
| 2026-05-07 09:31 | 10.81279 | 106.64834 | 44 ft | 11 kts | 69° |
| 2026-05-07 09:31 | 10.81299 | 106.64890 | 44 ft | 9 kts | 69° |
| 2026-05-07 09:31 | 10.81327 | 106.64964 | 44 ft | 13 kts | 69° |
| 2026-05-07 09:31 | 10.81345 | 106.65030 | 44 ft | 6 kts | 105° |
| 2026-05-07 09:32 | 10.81305 | 106.65058 | 44 ft | 9 kts | 149° |
| 2026-05-07 09:32 | 10.81254 | 106.65086 | 44 ft | 7 kts | 125° |
| 2026-05-07 09:32 | 10.81261 | 106.65144 | 44 ft | 10 kts | 68° |
| 2026-05-07 09:32 | 10.81279 | 106.65203 | 44 ft | 5 kts | 100° |
| 2026-05-07 09:33 | 10.81255 | 106.65226 | 44 ft | 3 kts | 150° |
| 2026-05-07 09:33 | 10.81236 | 106.65234 | 44 ft | 2 kts | 161° |
| 2026-05-07 09:33 | 10.81233 | 106.65234 | 44 ft | 0 kts | 161° |